Time;durP1;ratioP1;P1;durP2;ratioP2;P2;SDS_P1;SDS_P2;PMS_P1;PMS_P2;Temp;Humidity;BMP_temperature;BMP_pressure;BME280_temperature;BME280_humidity;BME280_pressure;Samples;Min_cycle;Max_cycle;Signal;HPM_P1;HPM_P2
2021/05/17 00:01:15;;;;;;;8.83;2.57;;;11.00;99.90;;;;;;5071301;28;20556;-70
2021/05/17 00:03:46;;;;;;;4.17;1.43;;;11.00;99.90;;;;;;5071360;28;20240;-71
2021/05/17 00:06:14;;;;;;;4.77;1.50;;;11.10;99.90;;;;;;5071148;28;20558;-70
2021/05/17 00:08:41;;;;;;;3.50;1.40;;;11.00;99.90;;;;;;5071406;28;20727;-70
2021/05/17 00:11:08;;;;;;;4.17;2.20;;;11.00;99.90;;;;;;5070989;28;20225;-70
2021/05/17 00:13:34;;;;;;;6.20;1.50;;;10.90;99.90;;;;;;5071528;28;20670;-70
2021/05/17 00:16:01;;;;;;;5.90;1.40;;;11.00;99.90;;;;;;5070337;28;20260;-69
2021/05/17 00:18:28;;;;;;;8.97;2.50;;;11.00;99.90;;;;;;5071455;28;20218;-70
2021/05/17 00:20:56;;;;;;;8.33;2.50;;;11.10;99.90;;;;;;5070755;28;20206;-70
2021/05/17 00:23:23;;;;;;;5.93;1.70;;;11.10;99.90;;;;;;5071271;28;20240;-70
2021/05/17 00:25:50;;;;;;;8.40;2.03;;;11.20;99.90;;;;;;5070971;28;20245;-70
2021/05/17 00:28:17;;;;;;;12.50;2.33;;;11.10;99.90;;;;;;5070642;28;20661;-70
2021/05/17 00:30:44;;;;;;;6.70;2.13;;;11.10;99.90;;;;;;5070782;28;20649;-70
2021/05/17 00:33:11;;;;;;;4.27;1.87;;;11.10;99.90;;;;;;5070489;28;20210;-70
2021/05/17 00:35:39;;;;;;;10.27;1.67;;;11.20;99.90;;;;;;5071089;28;20206;-70
2021/05/17 00:38:05;;;;;;;6.10;1.77;;;11.20;99.90;;;;;;5070363;28;20213;-70
2021/05/17 00:40:32;;;;;;;12.00;2.77;;;11.10;99.90;;;;;;5070789;28;20202;-70
2021/05/17 00:42:59;;;;;;;5.17;2.33;;;11.10;99.90;;;;;;5070632;28;20206;-70
2021/05/17 00:45:27;;;;;;;6.37;1.90;;;11.00;99.90;;;;;;5070586;28;20209;-70
2021/05/17 00:47:54;;;;;;;8.13;2.07;;;11.00;99.90;;;;;;5071083;28;20216;-71
2021/05/17 00:50:24;;;;;;;9.53;2.97;;;11.00;99.90;;;;;;5070914;28;20226;-70
2021/05/17 00:52:52;;;;;;;5.90;1.47;;;10.90;99.90;;;;;;5071209;28;20206;-70
2021/05/17 00:55:19;;;;;;;5.80;1.57;;;10.90;99.90;;;;;;5071045;28;20211;-70
2021/05/17 00:57:46;;;;;;;6.37;2.57;;;10.90;99.90;;;;;;5070812;28;20597;-71
2021/05/17 01:00:15;;;;;;;4.80;2.33;;;10.90;99.90;;;;;;5070270;28;20612;-70
2021/05/17 01:02:42;;;;;;;5.73;2.03;;;10.90;99.90;;;;;;5070948;28;20207;-70
2021/05/17 01:05:10;;;;;;;13.63;2.10;;;10.80;99.90;;;;;;5070341;28;20264;-70
2021/05/17 01:07:38;;;;;;;8.90;2.13;;;10.80;99.90;;;;;;5070123;28;20236;-70
2021/05/17 01:10:07;;;;;;;7.20;2.07;;;10.80;99.90;;;;;;5070328;28;20206;-70
2021/05/17 01:12:34;;;;;;;6.40;2.23;;;10.70;99.90;;;;;;5070115;28;20678;-70
2021/05/17 01:15:00;;;;;;;4.40;1.80;;;10.70;99.90;;;;;;5070256;28;20209;-70
2021/05/17 01:17:28;;;;;;;4.30;2.00;;;10.70;99.90;;;;;;5070414;28;20210;-70
2021/05/17 01:20:06;;;;;;;7.23;2.20;;;10.70;99.90;;;;;;5070012;28;20217;-70
2021/05/17 01:22:39;;;;;;;10.33;1.90;;;10.70;99.90;;;;;;5069937;28;20210;-70
2021/05/17 01:25:09;;;;;;;10.93;2.00;;;10.70;99.90;;;;;;5069632;28;20267;-70
2021/05/17 01:27:37;;;;;;;8.70;2.17;;;10.70;99.90;;;;;;5072741;28;20206;-70
2021/05/17 01:30:05;;;;;;;7.87;2.17;;;10.70;99.90;;;;;;5073853;28;20205;-70
2021/05/17 01:32:33;;;;;;;5.47;1.80;;;10.70;99.90;;;;;;5074373;28;20206;-70
2021/05/17 01:35:00;;;;;;;7.43;2.23;;;10.80;99.90;;;;;;5074103;28;20202;-70
2021/05/17 01:37:29;;;;;;;7.57;2.93;;;10.70;99.90;;;;;;5074467;28;20209;-70
2021/05/17 01:39:56;;;;;;;9.07;2.40;;;10.80;99.90;;;;;;5074000;28;20237;-70
2021/05/17 01:42:25;;;;;;;9.80;1.97;;;10.80;99.90;;;;;;5074375;28;20216;-70
2021/05/17 01:44:53;;;;;;;8.83;2.23;;;10.70;99.90;;;;;;5074261;28;20236;-71
2021/05/17 01:47:23;;;;;;;10.77;1.87;;;10.70;99.90;;;;;;5074864;28;20285;-70
2021/05/17 01:49:51;;;;;;;8.37;2.20;;;10.60;99.90;;;;;;5074525;28;20677;-70
2021/05/17 01:52:19;;;;;;;5.67;1.70;;;10.60;99.90;;;;;;5074166;28;20210;-70
2021/05/17 01:54:49;;;;;;;4.80;1.50;;;10.60;99.90;;;;;;5073902;28;20212;-69
2021/05/17 01:57:16;;;;;;;8.00;2.53;;;10.60;99.90;;;;;;5073568;28;20198;-70
2021/05/17 01:59:44;;;;;;;5.73;2.13;;;10.60;99.90;;;;;;5073762;28;20706;-70
2021/05/17 02:02:11;;;;;;;7.03;1.90;;;10.60;99.90;;;;;;5073605;28;20213;-70
2021/05/17 02:04:37;;;;;;;8.23;2.40;;;10.60;99.90;;;;;;5074053;28;20203;-70
2021/05/17 02:07:04;;;;;;;7.00;2.20;;;10.70;99.90;;;;;;5072923;28;20284;-70
2021/05/17 02:09:33;;;;;;;7.47;2.10;;;10.60;99.90;;;;;;5073883;28;20229;-70
2021/05/17 02:12:01;;;;;;;7.67;2.27;;;10.70;99.90;;;;;;5073436;28;20229;-70
2021/05/17 02:14:30;;;;;;;8.20;2.10;;;10.70;99.90;;;;;;5074051;28;20243;-70
2021/05/17 02:16:58;;;;;;;5.77;1.50;;;10.80;99.90;;;;;;5073116;28;20743;-70
2021/05/17 02:19:24;;;;;;;5.77;2.40;;;10.70;99.90;;;;;;5073462;28;20206;-70
2021/05/17 02:21:51;;;;;;;8.87;2.10;;;10.60;99.90;;;;;;5073849;28;20251;-69
2021/05/17 02:24:18;;;;;;;11.10;3.03;;;10.60;99.90;;;;;;5073265;28;20214;-69
2021/05/17 02:26:45;;;;;;;5.27;1.60;;;10.60;99.90;;;;;;5073250;28;20210;-69
2021/05/17 02:29:12;;;;;;;6.60;1.80;;;10.60;99.90;;;;;;5073250;28;20210;-70
2021/05/17 02:31:39;;;;;;;6.67;1.70;;;10.70;99.90;;;;;;5073282;28;20229;-70
2021/05/17 02:34:08;;;;;;;7.90;2.37;;;10.70;99.90;;;;;;5073243;28;20206;-70
2021/05/17 02:36:34;;;;;;;10.03;3.23;;;10.70;99.90;;;;;;5073122;28;20206;-69
2021/05/17 02:39:01;;;;;;;11.00;2.47;;;10.60;99.90;;;;;;5071799;28;20216;-70
2021/05/17 02:41:33;;;;;;;8.47;2.23;;;10.60;99.90;;;;;;5093353;28;20205;-70
2021/05/17 02:43:59;;;;;;;5.40;1.97;;;10.70;99.90;;;;;;5092898;28;20202;-70
2021/05/17 02:46:26;;;;;;;6.23;1.80;;;10.70;99.90;;;;;;5093173;28;20231;-70
2021/05/17 02:48:53;;;;;;;12.20;2.40;;;10.80;99.90;;;;;;5093286;28;20259;-70
2021/05/17 02:51:21;;;;;;;7.27;2.73;;;10.90;99.90;;;;;;5093711;28;20233;-70
2021/05/17 02:54:11;;;;;;;6.60;1.77;;;10.90;99.90;;;;;;5093179;28;20228;-69
2021/05/17 02:57:03;;;;;;;6.47;2.17;;;10.80;99.90;;;;;;5087865;28;20205;-70
2021/05/17 02:59:53;;;;;;;8.00;1.83;;;10.60;99.90;;;;;;5093395;28;20255;-70
2021/05/17 03:02:22;;;;;;;9.37;3.63;;;10.60;99.90;;;;;;5093413;28;20233;-70
2021/05/17 03:04:52;;;;;;;8.00;2.40;;;10.60;99.90;;;;;;5092944;28;20259;-70
2021/05/17 03:07:22;;;;;;;8.27;2.27;;;10.50;99.90;;;;;;5092752;28;20648;-70
2021/05/17 03:09:50;;;;;;;7.00;2.40;;;10.60;99.90;;;;;;5093258;28;20206;-70
2021/05/17 03:12:21;;;;;;;6.13;2.07;;;10.60;99.90;;;;;;5092402;28;20237;-70
2021/05/17 03:14:50;;;;;;;8.37;2.13;;;10.70;99.90;;;;;;5093008;28;20665;-72
2021/05/17 03:17:18;;;;;;;7.80;1.80;;;10.80;99.90;;;;;;5092318;28;20202;-70
2021/05/17 03:19:45;;;;;;;5.67;1.60;;;10.80;99.90;;;;;;5092707;28;20225;-70
2021/05/17 03:22:12;;;;;;;11.60;2.77;;;10.80;99.90;;;;;;5092505;28;20583;-70
2021/05/17 03:24:41;;;;;;;7.27;1.70;;;10.90;99.90;;;;;;5092707;28;20213;-70
2021/05/17 03:27:20;;;;;;;6.27;1.77;;;10.80;99.90;;;;;;5091988;28;20714;-70
2021/05/17 03:29:47;;;;;;;6.83;2.50;;;10.80;99.90;;;;;;5092795;28;20198;-70
2021/05/17 03:32:13;;;;;;;9.17;2.57;;;10.80;99.90;;;;;;5091896;28;20829;-71
2021/05/17 03:34:40;;;;;;;9.73;2.63;;;10.80;99.90;;;;;;5092160;28;20198;-71
2021/05/17 03:37:06;;;;;;;13.23;2.63;;;10.70;99.90;;;;;;5091939;28;20228;-70
2021/05/17 03:39:33;;;;;;;8.93;2.97;;;10.70;99.90;;;;;;5092183;28;20205;-70
2021/05/17 03:42:00;;;;;;;10.70;2.63;;;10.80;99.90;;;;;;5092082;28;20271;-71
2021/05/17 03:44:27;;;;;;;13.33;1.90;;;10.80;99.90;;;;;;5091862;28;20586;-70
2021/05/17 03:46:54;;;;;;;5.53;2.17;;;10.80;99.90;;;;;;5091729;28;20214;-71
2021/05/17 03:49:20;;;;;;;11.67;2.67;;;10.80;99.90;;;;;;5092632;28;20255;-70
2021/05/17 03:51:47;;;;;;;4.43;2.10;;;10.80;99.90;;;;;;5090934;28;20605;-71
2021/05/17 03:54:14;;;;;;;7.33;2.20;;;10.90;99.90;;;;;;5091568;28;20216;-70
2021/05/17 03:56:40;;;;;;;9.40;2.33;;;11.00;99.90;;;;;;5091971;28;20220;-70
2021/05/17 03:59:08;;;;;;;8.30;2.50;;;11.00;99.90;;;;;;5091968;28;20208;-71
2021/05/17 04:01:34;;;;;;;14.67;3.13;;;11.10;99.90;;;;;;5091698;28;20205;-71
2021/05/17 04:04:00;;;;;;;19.37;3.80;;;11.20;99.90;;;;;;5091656;28;20210;-72
2021/05/17 04:06:33;;;;;;;9.27;2.60;;;11.20;99.90;;;;;;5092142;28;20229;-72
2021/05/17 04:14:29;;;;;;;12.23;2.23;;;11.30;99.90;;;;;;5091884;28;20247;-72
2021/05/17 04:16:56;;;;;;;10.53;3.33;;;11.30;99.90;;;;;;5091131;28;20206;-72
2021/05/17 04:19:27;;;;;;;9.87;3.60;;;11.30;99.90;;;;;;5091517;28;20202;-71
2021/05/17 04:21:54;;;;;;;13.33;2.40;;;11.20;99.90;;;;;;5091094;28;20597;-71
2021/05/17 04:24:20;;;;;;;13.60;3.43;;;11.10;99.90;;;;;;5091814;28;20673;-72
2021/05/17 04:26:47;;;;;;;14.23;2.73;;;11.10;99.90;;;;;;5092078;28;20209;-74
2021/05/17 04:29:13;;;;;;;9.40;2.53;;;11.00;99.90;;;;;;5091029;28;20489;-73
2021/05/17 04:31:41;;;;;;;11.07;3.03;;;11.10;99.90;;;;;;5090870;28;20229;-71
2021/05/17 04:34:08;;;;;;;8.90;2.77;;;11.10;99.90;;;;;;5090823;28;20201;-73
2021/05/17 04:36:34;;;;;;;11.60;3.43;;;11.10;99.90;;;;;;5091629;28;20201;-74
2021/05/17 04:39:02;;;;;;;8.50;2.20;;;11.20;99.90;;;;;;5090814;28;20209;-72
2021/05/17 04:41:29;;;;;;;14.73;3.47;;;11.30;99.90;;;;;;5091148;28;20233;-71
2021/05/17 04:43:55;;;;;;;8.70;3.13;;;11.40;99.90;;;;;;5090783;28;20205;-72
2021/05/17 04:46:22;;;;;;;11.83;2.73;;;11.50;99.90;;;;;;5090625;28;20228;-71
2021/05/17 04:48:49;;;;;;;9.07;2.17;;;11.40;99.90;;;;;;5091733;28;20206;-72
2021/05/17 04:51:17;;;;;;;7.40;2.50;;;11.50;99.90;;;;;;5090413;28;20677;-73
2021/05/17 04:53:43;;;;;;;11.10;2.40;;;11.60;99.90;;;;;;5090936;28;20205;-72
2021/05/17 04:56:10;;;;;;;12.60;3.73;;;11.50;99.90;;;;;;5090150;28;20262;-71
2021/05/17 04:58:36;;;;;;;9.53;2.67;;;11.60;99.90;;;;;;5090873;28;20224;-72
2021/05/17 05:01:03;;;;;;;14.67;2.40;;;11.60;99.90;;;;;;5090074;28;20216;-73
2021/05/17 05:03:29;;;;;;;7.50;2.00;;;11.60;99.90;;;;;;5090520;28;20751;-74
2021/05/17 05:05:58;;;;;;;8.70;2.00;;;11.60;99.90;;;;;;5090666;28;20208;-72
2021/05/17 05:08:24;;;;;;;7.57;2.30;;;11.50;99.90;;;;;;5090413;28;20664;-73
2021/05/17 05:10:51;;;;;;;12.23;2.33;;;11.50;99.90;;;;;;5091119;28;20229;-72
2021/05/17 05:13:17;;;;;;;12.50;3.00;;;11.40;99.90;;;;;;5090365;28;20209;-72
2021/05/17 05:15:43;;;;;;;9.73;2.03;;;11.40;99.90;;;;;;5090649;28;20201;-72
2021/05/17 05:18:11;;;;;;;12.53;2.90;;;11.40;99.90;;;;;;5090544;28;20212;-72
2021/05/17 05:20:37;;;;;;;6.27;2.83;;;11.40;99.90;;;;;;5090411;28;20201;-73
2021/05/17 05:23:12;;;;;;;15.30;2.60;;;11.50;99.90;;;;;;5090080;28;20704;-72
2021/05/17 05:26:07;;;;;;;11.37;2.33;;;11.50;99.90;;;;;;5090493;28;20264;-72
2021/05/17 05:28:44;;;;;;;17.40;2.77;;;11.50;99.90;;;;;;5090524;28;20304;-71
2021/05/17 05:31:14;;;;;;;8.53;3.23;;;11.50;99.90;;;;;;5090037;28;20269;-72
2021/05/17 05:33:41;;;;;;;6.90;2.67;;;11.60;99.90;;;;;;5090342;28;20635;-73
2021/05/17 05:36:07;;;;;;;9.83;2.97;;;11.70;99.90;;;;;;5089883;28;20205;-72
2021/05/17 05:38:35;;;;;;;13.17;2.73;;;11.80;99.90;;;;;;5090371;28;20220;-71
2021/05/17 05:41:01;;;;;;;11.93;2.40;;;11.80;99.90;;;;;;5090023;28;20209;-72
2021/05/17 05:43:28;;;;;;;13.40;3.40;;;11.90;99.90;;;;;;5090505;28;20205;-72
2021/05/17 05:45:54;;;;;;;11.43;3.10;;;12.00;99.90;;;;;;5089622;28;20209;-73
2021/05/17 05:48:21;;;;;;;14.33;3.13;;;12.00;99.90;;;;;;5090287;28;20696;-73
2021/05/17 05:50:48;;;;;;;11.97;2.60;;;12.00;99.90;;;;;;5090670;28;20238;-73
2021/05/17 05:53:15;;;;;;;12.10;3.10;;;12.00;99.90;;;;;;5089891;28;20201;-74
2021/05/17 05:55:43;;;;;;;8.07;2.60;;;12.10;99.90;;;;;;5090622;28;20202;-73
2021/05/17 05:58:09;;;;;;;8.93;3.20;;;12.10;99.90;;;;;;5089708;28;20202;-73
2021/05/17 06:00:36;;;;;;;9.73;2.50;;;12.10;99.90;;;;;;5090272;28;20666;-74
2021/05/17 06:03:03;;;;;;;19.93;2.50;;;12.20;99.90;;;;;;5089917;28;20250;-73
2021/05/17 06:05:30;;;;;;;10.53;3.47;;;12.20;99.90;;;;;;5090186;28;20205;-74
2021/05/17 06:07:58;;;;;;;10.73;3.20;;;12.20;99.90;;;;;;5090051;28;20213;-75
2021/05/17 06:10:25;;;;;;;9.90;3.13;;;12.20;99.90;;;;;;5089972;28;20197;-74
2021/05/17 06:12:53;;;;;;;12.10;2.80;;;12.20;99.90;;;;;;5090086;28;20560;-75
2021/05/17 06:15:21;;;;;;;7.93;2.33;;;12.20;99.90;;;;;;5093474;28;20231;-74
2021/05/17 06:17:47;;;;;;;9.77;2.97;;;12.20;99.90;;;;;;5094383;28;20210;-75
2021/05/17 06:20:15;;;;;;;6.60;3.50;;;12.30;99.90;;;;;;5093467;28;20244;-74
2021/05/17 06:22:42;;;;;;;11.17;4.70;;;12.60;99.90;;;;;;5094115;28;20221;-73
2021/05/17 06:25:11;;;;;;;19.80;7.67;;;12.90;99.90;;;;;;5093417;28;20216;-73
2021/05/17 06:27:38;;;;;;;11.52;5.03;;;13.10;99.90;;;;;;5093352;28;20660;-74
2021/05/17 06:30:09;;;;;;;13.20;4.40;;;13.20;99.90;;;;;;5093420;28;20216;-74
2021/05/17 06:32:37;;;;;;;11.80;3.10;;;13.10;99.90;;;;;;5093216;28;20221;-74
2021/05/17 06:35:05;;;;;;;11.57;2.67;;;13.00;99.90;;;;;;5093434;28;20255;-76
2021/05/17 06:37:31;;;;;;;15.40;4.20;;;13.10;99.90;;;;;;5093573;28;20581;-74
2021/05/17 06:39:58;;;;;;;12.05;2.97;;;13.10;99.90;;;;;;5093258;28;20202;-73
2021/05/17 06:42:25;;;;;;;8.35;2.75;;;13.20;99.90;;;;;;5093134;28;20205;-74
2021/05/17 06:44:51;;;;;;;7.93;2.80;;;13.40;99.90;;;;;;5093302;28;20209;-72
2021/05/17 06:47:19;;;;;;;8.13;3.08;;;13.40;99.90;;;;;;5092713;28;20206;-74
2021/05/17 06:49:46;;;;;;;6.70;2.60;;;13.40;99.90;;;;;;5093327;28;20205;-73
2021/05/17 06:52:15;;;;;;;13.93;2.42;;;13.40;99.90;;;;;;5092828;28;20320;-73
2021/05/17 06:54:43;;;;;;;15.88;3.72;;;13.30;99.90;;;;;;5093188;28;20205;-72
2021/05/17 06:57:16;;;;;;;12.15;2.92;;;13.40;99.90;;;;;;5092706;28;20612;-73
2021/05/17 06:59:44;;;;;;;19.58;3.75;;;13.50;99.90;;;;;;5092916;28;20209;-73
2021/05/17 07:02:18;;;;;;;5.25;2.00;;;13.70;99.90;;;;;;5093064;28;20283;-73
2021/05/17 07:04:46;;;;;;;13.27;3.80;;;13.80;99.90;;;;;;5093131;28;20209;-74
2021/05/17 07:07:17;;;;;;;11.05;2.78;;;13.70;99.90;;;;;;5092351;28;20206;-74
2021/05/17 07:12:28;;;;;;;8.48;2.17;;;13.80;99.90;;;;;;5066337;28;20235;-74
2021/05/17 07:14:59;;;;;;;14.10;3.33;;;13.90;99.90;;;;;;5092642;28;20214;-73
2021/05/17 07:17:25;;;;;;;10.50;2.75;;;14.10;99.90;;;;;;5092778;28;20303;-73
2021/05/17 07:19:53;;;;;;;12.48;3.03;;;14.00;99.90;;;;;;5092870;28;20201;-73
2021/05/17 07:25:05;;;;;;;8.63;3.63;;;14.00;99.90;;;;;;5091934;28;20251;-73
2021/05/17 07:27:32;;;;;;;15.90;4.07;;;14.00;99.90;;;;;;5092230;28;20255;-73
2021/05/17 07:29:59;;;;;;;9.18;2.95;;;14.10;99.90;;;;;;5092326;28;20212;-74
2021/05/17 07:32:25;;;;;;;11.50;2.88;;;14.50;99.90;;;;;;5092320;28;20232;-74
2021/05/17 07:34:53;;;;;;;11.20;2.85;;;14.30;99.90;;;;;;5092471;28;20209;-74
2021/05/17 07:37:20;;;;;;;10.20;3.35;;;14.30;99.90;;;;;;5092579;28;20205;-73
2021/05/17 07:39:47;;;;;;;10.15;3.38;;;14.30;99.90;;;;;;5092588;28;20605;-73
2021/05/17 07:42:13;;;;;;;10.40;2.60;;;15.00;99.90;;;;;;5092071;28;20780;-73
2021/05/17 07:44:40;;;;;;;8.77;3.15;;;15.60;99.90;;;;;;5092152;28;20205;-73
2021/05/17 07:47:06;;;;;;;8.95;3.10;;;15.60;99.90;;;;;;5091615;28;20209;-74
2021/05/17 07:49:37;;;;;;;9.20;2.90;;;15.20;99.90;;;;;;5091726;28;20247;-73
2021/05/17 07:52:06;;;;;;;13.48;3.38;;;14.80;99.90;;;;;;5091540;28;20221;-75
2021/05/17 07:54:33;;;;;;;16.88;3.95;;;14.60;99.90;;;;;;5091768;28;20578;-74
2021/05/17 07:56:59;;;;;;;9.05;2.67;;;14.80;99.90;;;;;;5091245;28;20699;-74
2021/05/17 07:59:29;;;;;;;12.43;2.50;;;14.80;99.90;;;;;;5091889;28;20205;-74
2021/05/17 08:01:56;;;;;;;8.90;2.92;;;14.90;99.90;;;;;;5091485;28;20233;-73
2021/05/17 08:04:22;;;;;;;16.42;4.25;;;15.00;99.90;;;;;;5091812;28;20292;-74
2021/05/17 08:06:49;;;;;;;14.25;3.42;;;15.00;99.90;;;;;;5092090;28;20208;-74
2021/05/17 08:09:17;;;;;;;11.63;4.10;;;15.40;99.90;;;;;;5091548;28;20201;-75
2021/05/17 08:11:45;;;;;;;17.15;4.15;;;16.00;99.90;;;;;;5091697;28;20229;-74
2021/05/17 08:14:12;;;;;;;9.88;2.90;;;15.80;99.90;;;;;;5091414;28;20248;-75
2021/05/17 08:16:39;;;;;;;9.65;2.67;;;16.00;99.90;;;;;;5091349;28;20243;-74
2021/05/17 08:19:05;;;;;;;11.88;3.20;;;15.90;99.90;;;;;;5091215;28;20259;-74
2021/05/17 08:21:32;;;;;;;15.05;2.83;;;15.70;99.90;;;;;;5091731;28;20244;-75
2021/05/17 08:23:58;;;;;;;12.05;4.18;;;15.90;99.90;;;;;;5090812;28;20209;-76
2021/05/17 08:26:26;;;;;;;9.13;3.20;;;15.80;99.90;;;;;;5091529;28;20287;-74
2021/05/17 08:28:53;;;;;;;10.45;3.13;;;15.80;99.90;;;;;;5091308;28;20206;-74
2021/05/17 08:31:22;;;;;;;7.30;2.67;;;16.30;99.90;;;;;;5091490;28;20275;-74
2021/05/17 08:33:49;;;;;;;6.45;2.30;;;16.20;99.90;;;;;;5091286;28;20617;-73
2021/05/17 08:36:15;;;;;;;13.27;3.15;;;15.90;99.90;;;;;;5090528;28;20247;-75
2021/05/17 08:38:42;;;;;;;18.10;3.97;;;15.70;99.90;;;;;;5091144;28;20210;-74
2021/05/17 08:41:11;;;;;;;10.27;2.88;;;16.00;99.90;;;;;;5090732;28;20256;-74
2021/05/17 08:43:40;;;;;;;15.13;3.42;;;17.70;99.90;;;;;;5091305;28;20616;-74
2021/05/17 08:46:09;;;;;;;9.88;3.00;;;17.60;99.90;;;;;;5090637;28;20292;-74
2021/05/17 08:48:38;;;;;;;9.88;3.35;;;17.00;99.90;;;;;;5091080;28;20588;-74
2021/05/17 08:51:05;;;;;;;10.30;2.45;;;17.10;99.90;;;;;;5090526;28;20638;-74
2021/05/17 08:53:32;;;;;;;5.85;2.47;;;16.70;99.90;;;;;;5090754;28;20218;-74
2021/05/17 08:55:59;;;;;;;8.15;2.50;;;17.40;99.90;;;;;;5090577;28;20209;-73
2021/05/17 08:58:25;;;;;;;11.40;2.88;;;18.60;99.90;;;;;;5090492;28;20205;-75
2021/05/17 09:00:53;;;;;;;10.43;2.30;;;17.80;99.90;;;;;;5091399;28;20549;-74
2021/05/17 09:03:19;;;;;;;16.15;4.43;;;17.90;99.90;;;;;;5091128;28;20213;-76
2021/05/17 09:05:48;;;;;;;7.20;2.45;;;17.10;99.90;;;;;;5090734;28;20680;-74
2021/05/17 09:08:15;;;;;;;12.43;2.20;;;17.50;99.90;;;;;;5090342;28;20213;-75
2021/05/17 09:10:42;;;;;;;9.68;3.00;;;18.30;99.90;;;;;;5090757;28;20213;-76
2021/05/17 09:13:10;;;;;;;10.25;2.67;;;19.60;99.90;;;;;;5090484;28;20216;-73
2021/05/17 09:15:39;;;;;;;17.50;3.22;;;19.00;99.90;;;;;;5090683;28;20201;-75
2021/05/17 09:18:13;;;;;;;8.00;2.38;;;18.10;99.90;;;;;;5090587;28;20212;-75
2021/05/17 09:20:40;;;;;;;13.05;3.65;;;17.30;99.90;;;;;;5090259;28;20249;-74
2021/05/17 09:23:12;;;;;;;15.50;3.60;;;16.70;99.90;;;;;;5090065;28;20244;-74
2021/05/17 09:25:40;;;;;;;10.82;3.88;;;16.50;99.90;;;;;;5090150;28;20209;-73
2021/05/17 09:28:10;;;;;;;6.15;2.95;;;16.50;99.90;;;;;;5090410;28;20209;-73
2021/05/17 09:30:50;;;;;;;8.88;2.47;;;16.40;99.90;;;;;;5090480;28;20233;-74
2021/05/17 09:33:20;;;;;;;9.05;2.53;;;16.60;99.90;;;;;;5090189;28;20209;-77
2021/05/17 09:35:48;;;;;;;8.80;3.30;;;16.50;99.90;;;;;;5090567;28;20295;-73
2021/05/17 09:38:23;;;;;;;5.93;1.65;;;16.30;99.90;;;;;;5090039;28;20220;-75
2021/05/17 09:41:00;;;;;;;10.38;2.45;;;16.90;99.90;;;;;;5090677;28;20205;-74
2021/05/17 09:43:28;;;;;;;6.53;2.47;;;17.10;99.90;;;;;;5090676;28;20209;-76
2021/05/17 09:45:54;;;;;;;11.98;3.10;;;17.80;99.90;;;;;;5089966;28;20213;-73
2021/05/17 09:48:23;;;;;;;6.30;2.20;;;19.20;99.90;;;;;;5090648;28;20246;-75
2021/05/17 09:50:58;;;;;;;4.70;2.15;;;18.50;99.90;;;;;;5094756;28;20205;-74
2021/05/17 09:53:26;;;;;;;6.30;2.50;;;18.20;99.90;;;;;;5094108;28;20207;-75
2021/05/17 09:55:53;;;;;;;7.80;3.45;;;18.00;99.90;;;;;;5094514;28;20255;-75
2021/05/17 09:58:31;;;;;;;5.68;2.17;;;18.70;99.90;;;;;;5094580;28;20213;-76
2021/05/17 10:01:06;;;;;;;11.77;3.25;;;18.20;99.90;;;;;;5093672;28;20232;-77
2021/05/17 10:03:39;;;;;;;6.97;2.72;;;17.20;99.90;;;;;;5094312;28;20236;-76
2021/05/17 10:06:13;;;;;;;6.38;3.08;;;16.70;99.90;;;;;;5093789;28;20209;-76
2021/05/17 10:08:39;;;;;;;7.25;2.78;;;16.50;99.90;;;;;;5094094;28;20209;-75
2021/05/17 10:11:07;;;;;;;5.90;2.33;;;20.20;99.90;;;;;;5093933;28;20240;-76
2021/05/17 10:13:35;;;;;;;13.43;3.47;;;21.20;99.90;;;;;;5093951;28;20304;-76
2021/05/17 10:16:07;;;;;;;5.75;2.28;;;20.90;99.90;;;;;;5093691;28;20248;-73
2021/05/17 10:18:34;;;;;;;3.53;1.80;;;20.40;99.90;;;;;;5093709;28;20206;-75
2021/05/17 10:21:03;;;;;;;7.45;2.00;;;21.40;99.90;;;;;;5093756;28;20343;-74
2021/05/17 10:23:30;;;;;;;9.30;2.80;;;21.60;99.90;;;;;;5093797;28;20202;-73
2021/05/17 10:26:11;;;;;;;4.68;2.70;;;20.00;99.90;;;;;;5093242;28;20217;-72
2021/05/17 10:28:39;;;;;;;5.82;2.35;;;18.20;99.90;;;;;;5093573;28;20201;-73
2021/05/17 10:31:11;;;;;;;9.27;2.85;;;19.80;99.90;;;;;;5093426;28;20256;-70
2021/05/17 10:33:38;;;;;;;9.93;2.90;;;17.90;99.90;;;;;;5093505;28;20202;-76
2021/05/17 10:36:07;;;;;;;11.93;2.92;;;17.90;99.90;;;;;;5093009;28;20262;-76
2021/05/17 10:38:40;;;;;;;8.90;2.92;;;18.20;99.90;;;;;;5093444;28;20213;-74
2021/05/17 10:41:31;;;;;;;7.55;2.60;;;18.40;99.90;;;;;;5093045;28;20198;-74
2021/05/17 10:44:11;;;;;;;4.32;2.22;;;18.40;99.90;;;;;;5093068;28;20295;-74
2021/05/17 10:46:46;;;;;;;11.50;2.42;;;18.90;99.90;;;;;;5093248;28;20201;-76
2021/05/17 10:49:21;;;;;;;9.82;2.22;;;18.80;99.90;;;;;;5092777;28;20575;-78
2021/05/17 10:51:49;;;;;;;8.48;2.30;;;18.90;99.90;;;;;;5093157;28;20735;-76
2021/05/17 10:54:25;;;;;;;5.22;1.77;;;19.30;99.90;;;;;;5092819;28;20217;-76
2021/05/17 10:56:56;;;;;;;13.13;3.50;;;18.40;99.90;;;;;;5093293;28;20205;-76
2021/05/17 11:02:14;;;;;;;9.20;2.17;;;18.30;99.90;;;;;;5065220;28;20251;-75
2021/05/17 11:04:42;;;;;;;6.40;2.60;;;18.30;99.90;;;;;;5093217;28;20211;-77
2021/05/17 11:07:20;;;;;;;9.13;2.60;;;17.90;99.90;;;;;;5092648;28;20253;-76
2021/05/17 11:09:56;;;;;;;5.75;2.78;;;17.90;99.90;;;;;;5093304;28;20202;-75
2021/05/17 11:12:57;;;;;;;12.57;3.03;;;17.40;99.90;;;;;;5092949;28;20287;-76
2021/05/17 11:15:25;;;;;;;6.22;2.22;;;17.80;99.90;;;;;;5092873;28;20288;-75
2021/05/17 11:17:57;;;;;;;8.40;2.33;;;17.60;99.90;;;;;;5092727;28;20267;-75
2021/05/17 11:20:50;;;;;;;7.95;2.58;;;17.10;99.90;;;;;;5092791;28;20228;-77
2021/05/17 11:23:20;;;;;;;7.53;2.03;;;17.20;99.90;;;;;;5092849;28;20237;-74
2021/05/17 11:25:49;;;;;;;5.78;2.05;;;17.30;99.90;;;;;;5092576;28;20239;-75
2021/05/17 11:28:17;;;;;;;5.15;2.75;;;17.20;99.90;;;;;;5092308;28;20292;-75
2021/05/17 11:30:45;;;;;;;9.65;3.05;;;17.20;99.90;;;;;;5092194;28;20236;-75
2021/05/17 11:33:15;;;;;;;5.32;1.58;;;17.50;99.90;;;;;;5091844;28;20319;-75
2021/05/17 11:35:58;;;;;;;9.40;3.22;;;17.80;99.90;;;;;;5092152;28;20708;-77
2021/05/17 11:38:26;;;;;;;4.35;1.77;;;18.20;99.90;;;;;;5092236;28;20286;-75
2021/05/17 11:40:52;;;;;;;7.95;2.75;;;18.20;99.90;;;;;;5092179;28;20210;-76
2021/05/17 11:43:20;;;;;;;5.82;2.00;;;17.90;99.90;;;;;;5092760;28;20205;-76
2021/05/17 11:45:47;;;;;;;4.28;2.00;;;18.00;99.90;;;;;;5092263;28;20293;-75
2021/05/17 11:48:13;;;;;;;7.82;1.98;;;18.10;99.90;;;;;;5091791;28;20209;-76
2021/05/17 11:50:40;;;;;;;5.93;2.05;;;18.00;99.90;;;;;;5092206;28;20197;-77
2021/05/17 11:53:13;;;;;;;6.63;2.13;;;17.90;99.90;;;;;;5091270;28;20229;-74
2021/05/17 11:55:49;;;;;;;4.82;1.90;;;18.20;99.90;;;;;;5092138;28;20205;-77
2021/05/17 11:58:23;;;;;;;6.80;2.53;;;18.50;99.90;;;;;;5091516;28;20258;-76
2021/05/17 12:01:05;;;;;;;4.75;2.10;;;18.40;99.90;;;;;;5092141;28;20292;-77
2021/05/17 12:03:40;;;;;;;6.32;3.00;;;19.50;99.90;;;;;;5091711;28;20695;-74
2021/05/17 12:06:07;;;;;;;6.80;2.20;;;20.10;99.90;;;;;;5091623;28;20255;-74
2021/05/17 12:08:34;;;;;;;4.10;2.08;;;19.80;99.90;;;;;;5091815;28;20206;-74
2021/05/17 12:11:01;;;;;;;3.85;1.98;;;19.50;99.90;;;;;;5091158;28;20239;-75
2021/05/17 12:13:28;;;;;;;7.55;2.60;;;19.40;99.90;;;;;;5090924;28;20206;-73
2021/05/17 12:15:54;;;;;;;5.15;2.10;;;19.80;99.90;;;;;;5091115;28;20576;-75
2021/05/17 12:18:21;;;;;;;6.57;2.15;;;18.90;99.90;;;;;;5091710;28;20585;-75
2021/05/17 12:20:47;;;;;;;6.53;2.63;;;18.30;99.90;;;;;;5091673;28;20206;-73
2021/05/17 12:23:14;;;;;;;7.03;1.80;;;18.00;99.90;;;;;;5091384;28;20236;-73
2021/05/17 12:25:40;;;;;;;5.05;2.25;;;18.10;99.90;;;;;;5091183;28;20220;-74
2021/05/17 12:28:08;;;;;;;6.22;2.38;;;18.30;99.90;;;;;;5090991;28;20741;-78
2021/05/17 12:30:35;;;;;;;7.78;1.65;;;18.90;99.90;;;;;;5090929;28;20568;-74
2021/05/17 12:33:04;;;;;;;6.03;1.88;;;19.10;99.90;;;;;;5090988;28;20241;-74
2021/05/17 12:35:31;;;;;;;3.42;1.60;;;18.90;99.90;;;;;;5091134;28;20561;-73
2021/05/17 12:38:00;;;;;;;4.80;2.25;;;19.30;99.90;;;;;;5091138;28;20228;-73
2021/05/17 12:40:31;;;;;;;8.25;1.75;;;19.00;99.90;;;;;;5091514;28;20216;-73
2021/05/17 12:43:10;;;;;;;3.40;1.73;;;18.80;99.90;;;;;;5090825;28;20255;-73
2021/05/17 12:45:39;;;;;;;8.10;1.88;;;18.90;99.90;;;;;;5091073;28;20225;-73
2021/05/17 12:48:25;;;;;;;2.97;1.63;;;18.90;99.90;;;;;;5090785;28;20205;-75
2021/05/17 12:50:53;;;;;;;2.95;1.30;;;19.00;99.90;;;;;;5091406;28;20208;-73
2021/05/17 12:53:23;;;;;;;3.17;1.20;;;19.20;99.90;;;;;;5091167;28;20233;-73
2021/05/17 12:55:51;;;;;;;2.50;1.17;;;19.20;99.90;;;;;;5091049;28;20258;-73
2021/05/17 12:58:36;;;;;;;4.38;1.88;;;19.10;99.90;;;;;;5090350;28;20205;-77
2021/05/17 13:01:09;;;;;;;5.05;1.52;;;19.00;99.90;;;;;;5090619;28;20201;-74
2021/05/17 13:03:37;;;;;;;2.58;1.90;;;18.90;99.90;;;;;;5090511;28;20205;-71
2021/05/17 13:06:07;;;;;;;6.22;1.45;;;18.90;99.90;;;;;;5090685;28;20209;-75